sensor_id;sensor_type;location;lat;lon;timestamp;pressure;altitude;pressure_sealevel;temperature;humidity
75646;BME280;64237;52.438;13.240;2023-02-15T00:00:41;102782.19;;;1.62;84.97
75646;BME280;64237;52.438;13.240;2023-02-15T00:03:06;102776.25;;;1.57;85.73
75646;BME280;64237;52.438;13.240;2023-02-15T00:05:31;102779.44;;;1.62;85.37
75646;BME280;64237;52.438;13.240;2023-02-15T00:07:57;102785.84;;;1.72;85.21
75646;BME280;64237;52.438;13.240;2023-02-15T00:10:22;102780.56;;;1.80;84.10
75646;BME280;64237;52.438;13.240;2023-02-15T00:12:48;102774.38;;;1.78;84.78
75646;BME280;64237;52.438;13.240;2023-02-15T00:15:13;102774.63;;;1.75;84.64
75646;BME280;64237;52.438;13.240;2023-02-15T00:17:39;102775.94;;;1.71;84.88
75646;BME280;64237;52.438;13.240;2023-02-15T00:20:05;102773.22;;;1.71;84.78
75646;BME280;64237;52.438;13.240;2023-02-15T00:22:30;102761.38;;;1.61;84.45
75646;BME280;64237;52.438;13.240;2023-02-15T00:24:56;102770.00;;;1.66;84.61
75646;BME280;64237;52.438;13.240;2023-02-15T00:27:21;102768.81;;;1.59;84.29
75646;BME280;64237;52.438;13.240;2023-02-15T00:29:47;102758.53;;;1.42;84.68
75646;BME280;64237;52.438;13.240;2023-02-15T00:32:12;102761.59;;;1.27;84.94
75646;BME280;64237;52.438;13.240;2023-02-15T00:34:38;102766.31;;;1.25;84.86
75646;BME280;64237;52.438;13.240;2023-02-15T00:37:03;102766.06;;;1.28;84.80
75646;BME280;64237;52.438;13.240;2023-02-15T00:39:28;102764.59;;;1.24;85.20
75646;BME280;64237;52.438;13.240;2023-02-15T00:41:54;102760.38;;;1.20;85.44
75646;BME280;64237;52.438;13.240;2023-02-15T00:44:19;102755.28;;;1.06;85.21
75646;BME280;64237;52.438;13.240;2023-02-15T00:46:44;102759.00;;;1.05;84.88
75646;BME280;64237;52.438;13.240;2023-02-15T00:49:10;102763.22;;;0.98;85.17
75646;BME280;64237;52.438;13.240;2023-02-15T00:51:36;102763.69;;;1.03;85.25
75646;BME280;64237;52.438;13.240;2023-02-15T00:54:01;102764.09;;;0.98;85.41
75646;BME280;64237;52.438;13.240;2023-02-15T00:56:26;102760.97;;;1.03;85.13
75646;BME280;64237;52.438;13.240;2023-02-15T00:58:53;102754.56;;;0.93;85.75
75646;BME280;64237;52.438;13.240;2023-02-15T01:01:20;102752.31;;;0.98;85.51
75646;BME280;64237;52.438;13.240;2023-02-15T01:03:46;102751.81;;;1.04;84.65
75646;BME280;64237;52.438;13.240;2023-02-15T01:06:13;102752.59;;;0.95;85.14
75646;BME280;64237;52.438;13.240;2023-02-15T01:08:39;102755.09;;;0.87;84.77
75646;BME280;64237;52.438;13.240;2023-02-15T01:11:06;102744.47;;;0.84;85.05
75646;BME280;64237;52.438;13.240;2023-02-15T01:13:32;102736.06;;;0.76;85.16
75646;BME280;64237;52.438;13.240;2023-02-15T01:15:58;102742.28;;;0.66;85.59
75646;BME280;64237;52.438;13.240;2023-02-15T01:18:23;102739.13;;;0.61;85.61
75646;BME280;64237;52.438;13.240;2023-02-15T01:20:49;102737.03;;;0.54;85.53
75646;BME280;64237;52.438;13.240;2023-02-15T01:23:16;102741.72;;;0.52;86.00
75646;BME280;64237;52.438;13.240;2023-02-15T01:25:41;102729.50;;;0.46;86.85
75646;BME280;64237;52.438;13.240;2023-02-15T01:28:07;102727.75;;;0.45;86.90
75646;BME280;64237;52.438;13.240;2023-02-15T01:30:32;102721.91;;;0.61;85.83
75646;BME280;64237;52.438;13.240;2023-02-15T01:32:58;102723.53;;;0.52;85.50
75646;BME280;64237;52.438;13.240;2023-02-15T01:35:26;102723.78;;;0.49;85.60
75646;BME280;64237;52.438;13.240;2023-02-15T01:37:52;102716.97;;;0.55;85.49
75646;BME280;64237;52.438;13.240;2023-02-15T01:40:18;102711.16;;;0.48;85.60
75646;BME280;64237;52.438;13.240;2023-02-15T01:42:44;102716.88;;;0.45;85.46
75646;BME280;64237;52.438;13.240;2023-02-15T01:45:30;102716.91;;;0.34;85.92
75646;BME280;64237;52.438;13.240;2023-02-15T01:48:03;102697.69;;;0.15;86.76
75646;BME280;64237;52.438;13.240;2023-02-15T01:50:33;102697.44;;;0.18;86.15
75646;BME280;64237;52.438;13.240;2023-02-15T01:53:13;102691.72;;;0.21;86.17
75646;BME280;64237;52.438;13.240;2023-02-15T01:55:47;102679.13;;;0.09;86.41
75646;BME280;64237;52.438;13.240;2023-02-15T01:58:15;102682.72;;;0.09;86.24
75646;BME280;64237;52.438;13.240;2023-02-15T02:00:42;102673.06;;;0.05;87.16
75646;BME280;64237;52.438;13.240;2023-02-15T02:03:08;102677.41;;;0.08;86.69
75646;BME280;64237;52.438;13.240;2023-02-15T02:05:33;102673.19;;;0.04;86.32
75646;BME280;64237;52.438;13.240;2023-02-15T02:08:01;102668.38;;;0.07;86.73
75646;BME280;64237;52.438;13.240;2023-02-15T02:10:27;102675.41;;;0.21;86.53
75646;BME280;64237;52.438;13.240;2023-02-15T02:13:00;102671.75;;;0.31;85.79
75646;BME280;64237;52.438;13.240;2023-02-15T02:16:11;102672.63;;;0.32;85.41
75646;BME280;64237;52.438;13.240;2023-02-15T02:21:37;102667.81;;;0.36;85.19
75646;BME280;64237;52.438;13.240;2023-02-15T02:32:48;102669.84;;;0.11;85.64
75646;BME280;64237;52.438;13.240;2023-02-15T02:41:38;102640.56;;;0.04;86.23
75646;BME280;64237;52.438;13.240;2023-02-15T02:46:54;102630.41;;;0.06;85.69
75646;BME280;64237;52.438;13.240;2023-02-15T02:49:38;102630.66;;;0.03;86.54
75646;BME280;64237;52.438;13.240;2023-02-15T02:52:43;102640.81;;;0.00;86.14
75646;BME280;64237;52.438;13.240;2023-02-15T02:55:16;102637.13;;;-0.10;86.32
75646;BME280;64237;52.438;13.240;2023-02-15T02:57:52;102631.44;;;-0.07;86.05
75646;BME280;64237;52.438;13.240;2023-02-15T03:00:23;102629.91;;;0.00;86.68
75646;BME280;64237;52.438;13.240;2023-02-15T03:03:02;102629.22;;;-0.02;85.75
75646;BME280;64237;52.438;13.240;2023-02-15T03:05:31;102631.19;;;-0.04;86.13
75646;BME280;64237;52.438;13.240;2023-02-15T03:07:58;102623.03;;;-0.15;86.34
75646;BME280;64237;52.438;13.240;2023-02-15T03:10:31;102621.31;;;-0.16;86.07
75646;BME280;64237;52.438;13.240;2023-02-15T03:12:58;102622.31;;;-0.17;86.52
75646;BME280;64237;52.438;13.240;2023-02-15T03:15:28;102621.69;;;-0.20;86.62
75646;BME280;64237;52.438;13.240;2023-02-15T03:18:17;102625.75;;;-0.15;86.70
75646;BME280;64237;52.438;13.240;2023-02-15T03:20:45;102611.44;;;-0.17;86.38
75646;BME280;64237;52.438;13.240;2023-02-15T03:23:19;102610.56;;;-0.17;86.79
75646;BME280;64237;52.438;13.240;2023-02-15T03:25:52;102613.91;;;-0.14;86.50
75646;BME280;64237;52.438;13.240;2023-02-15T03:28:27;102611.41;;;-0.06;86.51
75646;BME280;64237;52.438;13.240;2023-02-15T03:30:57;102611.91;;;-0.01;85.90
75646;BME280;64237;52.438;13.240;2023-02-15T03:33:26;102610.81;;;-0.09;86.18
75646;BME280;64237;52.438;13.240;2023-02-15T03:35:53;102608.94;;;-0.09;86.15
75646;BME280;64237;52.438;13.240;2023-02-15T03:38:44;102606.47;;;-0.01;85.99
75646;BME280;64237;52.438;13.240;2023-02-15T03:41:15;102606.72;;;-0.04;86.02
75646;BME280;64237;52.438;13.240;2023-02-15T03:48:54;102599.19;;;-0.11;86.08
75646;BME280;64237;52.438;13.240;2023-02-15T03:51:25;102606.84;;;-0.16;86.35
75646;BME280;64237;52.438;13.240;2023-02-15T03:54:04;102595.34;;;-0.09;86.51
75646;BME280;64237;52.438;13.240;2023-02-15T03:56:34;102593.13;;;-0.04;85.76
75646;BME280;64237;52.438;13.240;2023-02-15T03:59:00;102599.75;;;0.04;85.68
75646;BME280;64237;52.438;13.240;2023-02-15T04:04:34;102582.75;;;-0.10;86.47
75646;BME280;64237;52.438;13.240;2023-02-15T04:07:01;102595.13;;;-0.17;87.62
75646;BME280;64237;52.438;13.240;2023-02-15T04:09:28;102595.38;;;-0.20;87.32
75646;BME280;64237;52.438;13.240;2023-02-15T04:12:12;102598.31;;;-0.12;87.49
75646;BME280;64237;52.438;13.240;2023-02-15T04:14:37;102601.53;;;-0.07;86.94
75646;BME280;64237;52.438;13.240;2023-02-15T04:17:21;102585.72;;;-0.13;86.96
75646;BME280;64237;52.438;13.240;2023-02-15T04:19:47;102578.53;;;-0.14;87.30
75646;BME280;64237;52.438;13.240;2023-02-15T04:22:31;102580.88;;;-0.09;86.87
75646;BME280;64237;52.438;13.240;2023-02-15T04:25:15;102580.16;;;-0.11;87.12
75646;BME280;64237;52.438;13.240;2023-02-15T04:27:51;102585.72;;;-0.13;87.28
75646;BME280;64237;52.438;13.240;2023-02-15T04:30:19;102581.88;;;-0.10;87.54
75646;BME280;64237;52.438;13.240;2023-02-15T04:32:46;102581.38;;;-0.15;87.91
75646;BME280;64237;52.438;13.240;2023-02-15T04:35:11;102575.34;;;-0.19;88.08
75646;BME280;64237;52.438;13.240;2023-02-15T04:37:38;102577.31;;;-0.21;88.22
75646;BME280;64237;52.438;13.240;2023-02-15T04:40:05;102580.78;;;-0.19;88.24
75646;BME280;64237;52.438;13.240;2023-02-15T04:42:31;102569.03;;;-0.19;88.30
75646;BME280;64237;52.438;13.240;2023-02-15T04:44:56;102557.03;;;-0.17;88.06
75646;BME280;64237;52.438;13.240;2023-02-15T04:47:22;102559.88;;;-0.18;87.85
75646;BME280;64237;52.438;13.240;2023-02-15T04:49:47;102555.19;;;-0.16;87.87
75646;BME280;64237;52.438;13.240;2023-02-15T04:52:13;102552.47;;;-0.16;87.65
75646;BME280;64237;52.438;13.240;2023-02-15T04:54:38;102537.88;;;-0.15;87.79
75646;BME280;64237;52.438;13.240;2023-02-15T04:57:04;102541.25;;;-0.23;87.97
75646;BME280;64237;52.438;13.240;2023-02-15T04:59:30;102532.38;;;-0.25;88.92
75646;BME280;64237;52.438;13.240;2023-02-15T05:01:56;102532.56;;;-0.17;88.14
75646;BME280;64237;52.438;13.240;2023-02-15T05:04:21;102522.69;;;-0.18;87.36
75646;BME280;64237;52.438;13.240;2023-02-15T05:06:46;102525.66;;;-0.21;88.15
75646;BME280;64237;52.438;13.240;2023-02-15T05:09:12;102516.81;;;-0.34;89.44
75646;BME280;64237;52.438;13.240;2023-02-15T05:11:37;102524.41;;;-0.17;88.56
75646;BME280;64237;52.438;13.240;2023-02-15T05:14:03;102518.66;;;-0.23;88.81
75646;BME280;64237;52.438;13.240;2023-02-15T05:16:28;102517.50;;;-0.21;88.93
75646;BME280;64237;52.438;13.240;2023-02-15T05:18:53;102518.53;;;-0.22;88.42
75646;BME280;64237;52.438;13.240;2023-02-15T05:21:19;102532.81;;;-0.20;88.54
75646;BME280;64237;52.438;13.240;2023-02-15T05:23:44;102525.41;;;-0.18;88.69
75646;BME280;64237;52.438;13.240;2023-02-15T05:26:21;102523.13;;;-0.02;88.36
75646;BME280;64237;52.438;13.240;2023-02-15T05:29:06;102522.72;;;0.03;88.43
75646;BME280;64237;52.438;13.240;2023-02-15T05:31:32;102520.09;;;0.13;88.49
75646;BME280;64237;52.438;13.240;2023-02-15T05:33:58;102515.63;;;0.12;88.90
75646;BME280;64237;52.438;13.240;2023-02-15T05:36:23;102512.41;;;0.18;88.80
75646;BME280;64237;52.438;13.240;2023-02-15T05:38:48;102505.00;;;0.09;89.19
75646;BME280;64237;52.438;13.240;2023-02-15T05:41:14;102504.53;;;0.04;89.36
75646;BME280;64237;52.438;13.240;2023-02-15T05:43:39;102510.94;;;0.14;89.56
75646;BME280;64237;52.438;13.240;2023-02-15T05:46:05;102507.47;;;0.12;89.29
75646;BME280;64237;52.438;13.240;2023-02-15T05:48:31;102495.47;;;0.14;89.11
75646;BME280;64237;52.438;13.240;2023-02-15T05:50:58;102506.00;;;0.08;89.34
75646;BME280;64237;52.438;13.240;2023-02-15T05:53:24;102510.66;;;0.17;89.21
75646;BME280;64237;52.438;13.240;2023-02-15T05:55:50;102514.13;;;0.19;89.11
75646;BME280;64237;52.438;13.240;2023-02-15T05:58:15;102508.25;;;0.23;89.16
75646;BME280;64237;52.438;13.240;2023-02-15T06:00:40;102511.84;;;0.24;89.08
75646;BME280;64237;52.438;13.240;2023-02-15T06:03:06;102512.06;;;0.32;88.88
75646;BME280;64237;52.438;13.240;2023-02-15T06:05:31;102498.25;;;0.24;88.29
75646;BME280;64237;52.438;13.240;2023-02-15T06:07:56;102504.00;;;0.10;89.01
75646;BME280;64237;52.438;13.240;2023-02-15T06:10:22;102509.41;;;0.21;89.47
75646;BME280;64237;52.438;13.240;2023-02-15T06:12:47;102504.97;;;0.20;89.48
75646;BME280;64237;52.438;13.240;2023-02-15T06:15:12;102501.25;;;0.21;89.33
75646;BME280;64237;52.438;13.240;2023-02-15T06:17:41;102509.84;;;0.26;89.07
75646;BME280;64237;52.438;13.240;2023-02-15T06:20:06;102512.41;;;0.18;88.34
75646;BME280;64237;52.438;13.240;2023-02-15T06:22:33;102510.13;;;0.23;88.52
75646;BME280;64237;52.438;13.240;2023-02-15T06:24:58;102511.31;;;0.30;88.66
75646;BME280;64237;52.438;13.240;2023-02-15T06:27:24;102512.53;;;0.37;88.16
75646;BME280;64237;52.438;13.240;2023-02-15T06:29:49;102505.53;;;0.44;87.47
75646;BME280;64237;52.438;13.240;2023-02-15T06:32:14;102509.06;;;0.35;87.74
75646;BME280;64237;52.438;13.240;2023-02-15T06:34:39;102496.72;;;0.31;86.94
75646;BME280;64237;52.438;13.240;2023-02-15T06:37:05;102498.22;;;0.45;87.11
75646;BME280;64237;52.438;13.240;2023-02-15T06:39:31;102494.63;;;-0.18;88.57
75646;BME280;64237;52.438;13.240;2023-02-15T06:41:57;102499.97;;;0.04;89.03
75646;BME280;64237;52.438;13.240;2023-02-15T06:44:22;102490.75;;;-0.05;88.49
75646;BME280;64237;52.438;13.240;2023-02-15T06:46:48;102493.75;;;-0.19;89.24
75646;BME280;64237;52.438;13.240;2023-02-15T06:49:13;102494.84;;;0.11;88.88
75646;BME280;64237;52.438;13.240;2023-02-15T06:51:38;102496.78;;;-0.01;88.30
75646;BME280;64237;52.438;13.240;2023-02-15T06:54:04;102496.97;;;0.07;88.09
75646;BME280;64237;52.438;13.240;2023-02-15T06:56:29;102497.59;;;0.11;88.69
75646;BME280;64237;52.438;13.240;2023-02-15T06:58:54;102496.31;;;0.15;87.77
75646;BME280;64237;52.438;13.240;2023-02-15T07:01:20;102502.13;;;-0.11;88.92
75646;BME280;64237;52.438;13.240;2023-02-15T07:03:45;102489.91;;;-0.16;88.15
75646;BME280;64237;52.438;13.240;2023-02-15T07:06:10;102491.53;;;-0.14;88.88
75646;BME280;64237;52.438;13.240;2023-02-15T07:08:38;102494.13;;;0.09;88.97
75646;BME280;64237;52.438;13.240;2023-02-15T07:11:04;102483.19;;;0.20;88.18
75646;BME280;64237;52.438;13.240;2023-02-15T07:13:49;102485.84;;;0.31;87.71
75646;BME280;64237;52.438;13.240;2023-02-15T07:16:14;102489.22;;;0.23;87.39
75646;BME280;64237;52.438;13.240;2023-02-15T07:18:40;102481.47;;;0.19;87.59
75646;BME280;64237;52.438;13.240;2023-02-15T07:21:06;102477.16;;;-0.05;88.16
75646;BME280;64237;52.438;13.240;2023-02-15T07:23:35;102467.38;;;-0.28;88.21
75646;BME280;64237;52.438;13.240;2023-02-15T07:26:01;102471.44;;;-0.02;87.84
75646;BME280;64237;52.438;13.240;2023-02-15T07:28:27;102474.84;;;-0.20;88.86
75646;BME280;64237;52.438;13.240;2023-02-15T07:30:52;102470.97;;;-0.07;89.14
75646;BME280;64237;52.438;13.240;2023-02-15T07:33:17;102473.34;;;0.08;87.66
75646;BME280;64237;52.438;13.240;2023-02-15T07:35:55;102468.44;;;2.49;88.00
75646;BME280;64237;52.438;13.240;2023-02-15T07:38:25;102461.03;;;2.22;81.29
75646;BME280;64237;52.438;13.240;2023-02-15T07:40:51;102465.69;;;1.73;81.60
75646;BME280;64237;52.438;13.240;2023-02-15T07:43:16;102466.50;;;1.45;82.50
75646;BME280;64237;52.438;13.240;2023-02-15T07:45:42;102466.97;;;1.00;83.42
75646;BME280;64237;52.438;13.240;2023-02-15T07:48:08;102468.91;;;0.88;84.55
75646;BME280;64237;52.438;13.240;2023-02-15T07:50:34;102462.53;;;0.68;84.65
75646;BME280;64237;52.438;13.240;2023-02-15T07:53:03;102466.09;;;0.59;86.00
75646;BME280;64237;52.438;13.240;2023-02-15T07:55:28;102462.59;;;0.27;86.47
75646;BME280;64237;52.438;13.240;2023-02-15T07:57:54;102451.09;;;0.44;87.37
75646;BME280;64237;52.438;13.240;2023-02-15T08:00:21;102453.19;;;0.31;88.32
75646;BME280;64237;52.438;13.240;2023-02-15T08:02:54;102452.47;;;0.59;87.38
75646;BME280;64237;52.438;13.240;2023-02-15T08:05:42;102449.91;;;0.67;86.29
75646;BME280;64237;52.438;13.240;2023-02-15T08:08:09;102441.31;;;0.62;86.48
75646;BME280;64237;52.438;13.240;2023-02-15T08:11:05;102441.84;;;0.56;86.74
75646;BME280;64237;52.438;13.240;2023-02-15T08:14:04;102445.13;;;0.50;88.02
75646;BME280;64237;52.438;13.240;2023-02-15T08:16:37;102437.63;;;0.73;86.57
75646;BME280;64237;52.438;13.240;2023-02-15T08:21:30;102431.66;;;0.89;86.73
75646;BME280;64237;52.438;13.240;2023-02-15T08:23:57;102430.81;;;0.98;86.18
75646;BME280;64237;52.438;13.240;2023-02-15T08:26:24;102437.94;;;0.89;86.40
75646;BME280;64237;52.438;13.240;2023-02-15T08:28:51;102423.66;;;0.97;85.96
75646;BME280;64237;52.438;13.240;2023-02-15T08:31:16;102422.66;;;0.98;85.79
75646;BME280;64237;52.438;13.240;2023-02-15T08:33:43;102429.50;;;0.83;86.82
75646;BME280;64237;52.438;13.240;2023-02-15T08:36:12;102435.16;;;0.60;87.35
75646;BME280;64237;52.438;13.240;2023-02-15T08:38:39;102432.03;;;0.75;87.28
75646;BME280;64237;52.438;13.240;2023-02-15T08:43:41;102423.19;;;0.92;87.13
75646;BME280;64237;52.438;13.240;2023-02-15T08:46:07;102414.50;;;0.67;87.69
75646;BME280;64237;52.438;13.240;2023-02-15T08:48:33;102411.94;;;1.06;86.25
75646;BME280;64237;52.438;13.240;2023-02-15T08:51:04;102407.63;;;1.13;85.74
75646;BME280;64237;52.438;13.240;2023-02-15T08:53:30;102414.50;;;1.17;85.87
75646;BME280;64237;52.438;13.240;2023-02-15T08:55:56;102392.16;;;1.23;85.36
75646;BME280;64237;52.438;13.240;2023-02-15T08:58:22;102408.63;;;1.12;85.53
75646;BME280;64237;52.438;13.240;2023-02-15T09:00:48;102404.75;;;1.15;86.75
75646;BME280;64237;52.438;13.240;2023-02-15T09:03:13;102404.75;;;1.15;86.33
75646;BME280;64237;52.438;13.240;2023-02-15T09:05:38;102393.41;;;1.00;86.19
75646;BME280;64237;52.438;13.240;2023-02-15T09:08:04;102388.44;;;1.24;86.13
75646;BME280;64237;52.438;13.240;2023-02-15T09:10:29;102387.69;;;1.03;86.82
75646;BME280;64237;52.438;13.240;2023-02-15T09:12:54;102383.81;;;1.34;86.80
75646;BME280;64237;52.438;13.240;2023-02-15T09:15:20;102396.72;;;1.32;85.98
75646;BME280;64237;52.438;13.240;2023-02-15T09:17:45;102390.72;;;1.38;85.61
75646;BME280;64237;52.438;13.240;2023-02-15T09:20:10;102391.25;;;1.13;86.70
75646;BME280;64237;52.438;13.240;2023-02-15T09:22:36;102382.53;;;1.19;86.17
75646;BME280;64237;52.438;13.240;2023-02-15T09:25:01;102385.00;;;1.42;86.17
75646;BME280;64237;52.438;13.240;2023-02-15T09:27:27;102389.00;;;1.57;85.47
75646;BME280;64237;52.438;13.240;2023-02-15T09:29:52;102391.00;;;1.35;85.49
75646;BME280;64237;52.438;13.240;2023-02-15T09:32:17;102382.53;;;1.38;85.68
75646;BME280;64237;52.438;13.240;2023-02-15T09:34:43;102386.16;;;1.49;85.76
75646;BME280;64237;52.438;13.240;2023-02-15T09:37:08;102391.16;;;1.53;86.88
75646;BME280;64237;52.438;13.240;2023-02-15T09:39:33;102388.88;;;1.49;86.40
75646;BME280;64237;52.438;13.240;2023-02-15T09:48:26;102393.00;;;1.82;85.75
75646;BME280;64237;52.438;13.240;2023-02-15T09:53:54;102388.94;;;2.05;84.95
75646;BME280;64237;52.438;13.240;2023-02-15T10:10:45;102384.38;;;2.42;83.72
75646;BME280;64237;52.438;13.240;2023-02-15T10:21:27;102375.94;;;2.63;83.58
75646;BME280;64237;52.438;13.240;2023-02-15T10:26:44;102372.56;;;2.52;83.75
75646;BME280;64237;52.438;13.240;2023-02-15T10:32:41;102364.41;;;2.69;83.75
75646;BME280;64237;52.438;13.240;2023-02-15T10:34:49;102355.81;;;2.37;84.19
75646;BME280;64237;52.438;13.240;2023-02-15T10:37:48;102357.66;;;2.91;83.62
75646;BME280;64237;52.438;13.240;2023-02-15T10:40:48;102348.16;;;3.13;82.25
75646;BME280;64237;52.438;13.240;2023-02-15T10:43:45;102346.34;;;3.04;82.45
75646;BME280;64237;52.438;13.240;2023-02-15T10:46:27;102349.31;;;3.10;83.15
75646;BME280;64237;52.438;13.240;2023-02-15T10:49:10;102343.41;;;3.33;81.41
75646;BME280;64237;52.438;13.240;2023-02-15T10:57:33;102335.09;;;3.60;81.27
75646;BME280;64237;52.438;13.240;2023-02-15T11:07:52;102320.25;;;3.63;82.18
75646;BME280;64237;52.438;13.240;2023-02-15T11:12:49;102322.25;;;4.04;81.78
75646;BME280;64237;52.438;13.240;2023-02-15T11:15:19;102314.56;;;4.42;79.89
75646;BME280;64237;52.438;13.240;2023-02-15T11:17:55;102311.34;;;4.46;79.73
75646;BME280;64237;52.438;13.240;2023-02-15T11:20:29;102300.38;;;5.05;77.53
75646;BME280;64237;52.438;13.240;2023-02-15T11:22:56;102293.22;;;5.36;76.47
75646;BME280;64237;52.438;13.240;2023-02-15T11:25:29;102297.66;;;5.29;77.03
75646;BME280;64237;52.438;13.240;2023-02-15T11:27:55;102298.34;;;5.64;74.93
75646;BME280;64237;52.438;13.240;2023-02-15T11:30:42;102282.38;;;5.92;74.36
75646;BME280;64237;52.438;13.240;2023-02-15T11:33:23;102279.59;;;6.55;72.78
75646;BME280;64237;52.438;13.240;2023-02-15T11:36:14;102271.72;;;6.83;71.55
75646;BME280;64237;52.438;13.240;2023-02-15T11:38:42;102269.91;;;7.21;71.00
75646;BME280;64237;52.438;13.240;2023-02-15T11:41:10;102270.59;;;7.61;68.74
75646;BME280;64237;52.438;13.240;2023-02-15T11:43:53;102271.31;;;7.92;67.83
75646;BME280;64237;52.438;13.240;2023-02-15T11:46:22;102265.47;;;8.39;66.51
75646;BME280;64237;52.438;13.240;2023-02-15T11:48:47;102260.94;;;8.82;64.09
75646;BME280;64237;52.438;13.240;2023-02-15T11:51:16;102257.69;;;8.79;64.56
75646;BME280;64237;52.438;13.240;2023-02-15T11:53:42;102264.03;;;9.15;63.60
75646;BME280;64237;52.438;13.240;2023-02-15T11:56:20;102253.06;;;9.22;62.41
75646;BME280;64237;52.438;13.240;2023-02-15T11:59:03;102256.94;;;9.49;62.51
75646;BME280;64237;52.438;13.240;2023-02-15T12:01:55;102240.31;;;9.21;62.84
75646;BME280;64237;52.438;13.240;2023-02-15T12:04:25;102251.19;;;9.72;61.81
75646;BME280;64237;52.438;13.240;2023-02-15T12:06:58;102249.09;;;10.08;59.84
75646;BME280;64237;52.438;13.240;2023-02-15T12:09:37;102248.03;;;10.37;59.12
75646;BME280;64237;52.438;13.240;2023-02-15T12:14:49;102249.69;;;10.32;59.34
75646;BME280;64237;52.438;13.240;2023-02-15T12:17:16;102241.06;;;11.15;57.77
75646;BME280;64237;52.438;13.240;2023-02-15T12:19:41;102243.06;;;10.74;57.51
75646;BME280;64237;52.438;13.240;2023-02-15T12:22:34;102234.91;;;11.53;56.48
75646;BME280;64237;52.438;13.240;2023-02-15T12:25:10;102226.16;;;12.02;55.31
75646;BME280;64237;52.438;13.240;2023-02-15T12:27:45;102220.19;;;11.65;55.36
75646;BME280;64237;52.438;13.240;2023-02-15T12:30:32;102224.03;;;11.51;56.22
75646;BME280;64237;52.438;13.240;2023-02-15T12:35:47;102222.31;;;11.57;56.29
75646;BME280;64237;52.438;13.240;2023-02-15T12:40:40;102219.66;;;12.34;54.21
75646;BME280;64237;52.438;13.240;2023-02-15T12:43:25;102206.38;;;12.88;52.05
75646;BME280;64237;52.438;13.240;2023-02-15T12:45:50;102203.66;;;13.13;52.28
75646;BME280;64237;52.438;13.240;2023-02-15T12:48:18;102199.00;;;13.07;52.79
75646;BME280;64237;52.438;13.240;2023-02-15T12:50:46;102189.94;;;12.86;51.91
75646;BME280;64237;52.438;13.240;2023-02-15T12:55:53;102195.16;;;12.18;55.19
75646;BME280;64237;52.438;13.240;2023-02-15T12:58:22;102190.13;;;11.69;57.03
75646;BME280;64237;52.438;13.240;2023-02-15T13:01:03;102177.75;;;11.12;57.14
75646;BME280;64237;52.438;13.240;2023-02-15T13:03:29;102182.56;;;10.16;60.19
75646;BME280;64237;52.438;13.240;2023-02-15T13:05:56;102179.72;;;10.38;59.71
75646;BME280;64237;52.438;13.240;2023-02-15T13:08:35;102173.53;;;10.01;61.57
75646;BME280;64237;52.438;13.240;2023-02-15T13:11:08;102173.63;;;9.80;62.24
75646;BME280;64237;52.438;13.240;2023-02-15T13:13:56;102171.25;;;9.42;63.49
75646;BME280;64237;52.438;13.240;2023-02-15T13:16:32;102157.72;;;9.54;63.89
75646;BME280;64237;52.438;13.240;2023-02-15T13:19:05;102156.44;;;9.22;64.75
75646;BME280;64237;52.438;13.240;2023-02-15T13:21:36;102152.88;;;9.28;64.61
75646;BME280;64237;52.438;13.240;2023-02-15T13:24:13;102155.66;;;9.35;65.40
75646;BME280;64237;52.438;13.240;2023-02-15T13:26:41;102151.16;;;9.27;65.19
75646;BME280;64237;52.438;13.240;2023-02-15T13:29:17;102143.56;;;9.36;64.42
75646;BME280;64237;52.438;13.240;2023-02-15T13:31:46;102144.69;;;9.41;64.63
75646;BME280;64237;52.438;13.240;2023-02-15T13:34:34;102143.88;;;9.47;65.79
75646;BME280;64237;52.438;13.240;2023-02-15T13:37:20;102139.16;;;9.41;65.55
75646;BME280;64237;52.438;13.240;2023-02-15T13:39:58;102139.47;;;9.25;65.19
75646;BME280;64237;52.438;13.240;2023-02-15T13:42:31;102124.22;;;9.29;65.91
75646;BME280;64237;52.438;13.240;2023-02-15T13:48:16;102124.38;;;9.55;64.12
75646;BME280;64237;52.438;13.240;2023-02-15T13:51:00;102115.88;;;9.57;64.50
75646;BME280;64237;52.438;13.240;2023-02-15T13:53:41;102125.28;;;9.62;64.39
75646;BME280;64237;52.438;13.240;2023-02-15T14:01:46;102135.22;;;9.57;65.06
75646;BME280;64237;52.438;13.240;2023-02-15T14:10:26;102132.06;;;9.60;64.54
75646;BME280;64237;52.438;13.240;2023-02-15T14:18:42;102126.72;;;9.58;65.25
75646;BME280;64237;52.438;13.240;2023-02-15T14:21:15;102115.44;;;9.53;65.30
75646;BME280;64237;52.438;13.240;2023-02-15T14:26:49;102105.28;;;9.60;64.65
75646;BME280;64237;52.438;13.240;2023-02-15T14:29:22;102105.69;;;9.57;65.03
75646;BME280;64237;52.438;13.240;2023-02-15T14:31:53;102106.53;;;9.58;65.11
75646;BME280;64237;52.438;13.240;2023-02-15T14:34:23;102094.63;;;9.57;64.92
75646;BME280;64237;52.438;13.240;2023-02-15T14:36:51;102102.28;;;9.55;65.16
75646;BME280;64237;52.438;13.240;2023-02-15T14:42:21;102099.88;;;9.46;65.67
75646;BME280;64237;52.438;13.240;2023-02-15T14:44:58;102099.44;;;9.42;67.19
75646;BME280;64237;52.438;13.240;2023-02-15T14:47:31;102091.09;;;9.36;66.24
75646;BME280;64237;52.438;13.240;2023-02-15T14:49:58;102085.56;;;9.29;67.58
75646;BME280;64237;52.438;13.240;2023-02-15T14:52:25;102082.72;;;9.22;67.54
75646;BME280;64237;52.438;13.240;2023-02-15T14:54:55;102086.34;;;9.23;68.38
75646;BME280;64237;52.438;13.240;2023-02-15T14:57:24;102077.16;;;9.16;67.25
75646;BME280;64237;52.438;13.240;2023-02-15T15:05:01;102082.94;;;9.21;66.46
75646;BME280;64237;52.438;13.240;2023-02-15T15:07:50;102078.66;;;9.18;67.05
75646;BME280;64237;52.438;13.240;2023-02-15T15:12:43;102069.28;;;9.13;65.92
75646;BME280;64237;52.438;13.240;2023-02-15T15:15:33;102069.66;;;9.10;64.89